createdAt,value
2022-12-01T00:01:55.036Z,162.45
2022-12-01T00:04:25.827Z,175.68
2022-12-01T00:06:52.833Z,146.90
2022-12-01T00:09:38.325Z,166.57
2022-12-01T00:12:07.491Z,151.48
2022-12-01T00:14:34.844Z,178.43
2022-12-01T00:17:01.738Z,180.23
2022-12-01T00:19:29.000Z,162.27
2022-12-01T00:21:57.650Z,214.13
2022-12-01T00:24:25.661Z,158.20
2022-12-01T00:26:57.492Z,207.43
2022-12-01T00:29:27.391Z,223.27
2022-12-01T00:31:56.298Z,217.20
2022-12-01T00:34:25.598Z,158.98
2022-12-01T00:36:52.915Z,186.55
2022-12-01T00:39:20.728Z,197.68
2022-12-01T00:41:48.004Z,169.15
2022-12-01T00:44:15.067Z,173.70
2022-12-01T00:46:42.080Z,206.55
2022-12-01T00:49:13.434Z,201.50
2022-12-01T00:51:45.964Z,161.00
2022-12-01T00:54:13.392Z,170.52
2022-12-01T00:56:40.391Z,223.60
2022-12-01T00:59:07.571Z,234.43
2022-12-01T01:01:35.417Z,148.25
2022-12-01T01:04:08.323Z,179.90
2022-12-01T01:06:35.494Z,194.02
2022-12-01T01:09:02.714Z,186.98
2022-12-01T01:11:55.281Z,199.13
2022-12-01T01:14:40.692Z,172.95
2022-12-01T01:17:13.094Z,212.35
2022-12-01T01:19:40.234Z,212.52
2022-12-01T01:22:07.399Z,156.48
2022-12-01T01:24:34.607Z,202.30
2022-12-01T01:27:01.766Z,197.80
2022-12-01T01:29:31.983Z,207.05
2022-12-01T01:31:59.331Z,181.65
2022-12-01T01:34:26.393Z,169.00
2022-12-01T01:36:55.850Z,198.45
2022-12-01T01:39:27.806Z,212.77
2022-12-01T01:41:58.608Z,221.52
2022-12-01T01:44:52.307Z,213.00
2022-12-01T01:47:40.648Z,182.85
2022-12-01T01:50:25.838Z,223.20
2022-12-01T01:52:59.776Z,218.55
2022-12-01T01:55:35.698Z,184.70
2022-12-01T01:58:11.371Z,178.88
2022-12-01T02:00:43.054Z,253.45
2022-12-01T02:03:13.642Z,205.13
2022-12-01T02:05:42.355Z,223.82
2022-12-01T02:08:13.890Z,190.82
2022-12-01T02:10:55.488Z,191.00
2022-12-01T02:13:36.301Z,176.70
2022-12-01T02:16:36.682Z,204.93
2022-12-01T02:19:37.557Z,172.38
2022-12-01T02:22:15.069Z,199.15
2022-12-01T02:24:51.191Z,182.95
2022-12-01T02:27:46.822Z,207.90
2022-12-01T02:30:36.479Z,187.13
2022-12-01T02:33:18.010Z,182.25
2022-12-01T02:35:57.061Z,217.57
2022-12-01T02:38:29.897Z,180.02
2022-12-01T02:41:00.955Z,189.32
2022-12-01T02:43:36.476Z,176.55
2022-12-01T02:46:12.067Z,239.93
2022-12-01T02:48:43.037Z,264.02
2022-12-01T02:51:14.861Z,245.93
2022-12-01T02:53:41.987Z,194.52
2022-12-01T02:56:12.244Z,186.13
2022-12-01T02:58:39.248Z,239.95
2022-12-01T03:01:33.608Z,225.73
2022-12-01T03:04:38.920Z,168.82
2022-12-01T03:07:19.353Z,211.02
2022-12-01T03:10:24.680Z,178.65
2022-12-01T03:13:20.636Z,213.63
2022-12-01T03:16:15.639Z,227.40
2022-12-01T03:18:48.969Z,177.90
2022-12-01T03:21:40.978Z,244.23
2022-12-01T03:24:13.287Z,163.80
2022-12-01T03:26:43.144Z,209.32
2022-12-01T03:29:25.469Z,196.27
2022-12-01T03:31:56.270Z,226.73
2022-12-01T03:34:46.472Z,241.13
2022-12-01T03:37:32.485Z,241.20
2022-12-01T03:40:02.055Z,230.50
2022-12-01T03:43:07.693Z,265.10
2022-12-01T03:45:44.835Z,263.85
2022-12-01T03:48:11.778Z,246.48
2022-12-01T03:51:05.294Z,210.93
2022-12-01T03:54:06.011Z,208.70
2022-12-01T03:56:38.129Z,205.90
2022-12-01T03:59:08.826Z,215.98
2022-12-01T04:01:36.454Z,207.63
2022-12-01T04:06:31.712Z,181.88
2022-12-01T04:08:58.428Z,259.00
2022-12-01T04:11:44.145Z,256.10
2022-12-01T04:14:11.098Z,201.73
2022-12-01T04:16:38.061Z,248.10
2022-12-01T04:19:07.173Z,278.23
2022-12-01T04:21:34.011Z,269.58
2022-12-01T04:24:01.026Z,225.10
2022-12-01T04:26:34.632Z,206.45
2022-12-01T04:29:08.433Z,252.18
2022-12-01T04:31:36.246Z,196.75
2022-12-01T04:34:03.343Z,265.02
2022-12-01T04:36:32.266Z,259.63
2022-12-01T04:38:59.545Z,329.98
2022-12-01T04:41:26.685Z,274.23
2022-12-01T04:43:54.955Z,332.92
2022-12-01T04:46:22.784Z,250.25
2022-12-01T04:48:50.574Z,202.98
2022-12-01T04:51:17.528Z,308.20
2022-12-01T04:53:44.409Z,267.92
2022-12-01T04:56:11.329Z,223.77
2022-12-01T04:58:38.513Z,205.23
2022-12-01T05:01:10.560Z,242.60
2022-12-01T05:03:39.718Z,237.30
2022-12-01T05:06:10.142Z,256.88
2022-12-01T05:08:40.778Z,292.35
2022-12-01T05:11:12.375Z,301.77
2022-12-01T05:13:41.173Z,342.52
2022-12-01T05:16:11.599Z,294.55
2022-12-01T05:18:38.947Z,308.75
2022-12-01T05:21:10.981Z,257.15
2022-12-01T05:23:39.343Z,232.27
2022-12-01T05:26:10.930Z,255.32
2022-12-01T05:28:38.943Z,203.93
2022-12-01T05:31:05.876Z,182.98
2022-12-01T05:33:32.795Z,275.00
2022-12-01T05:35:59.510Z,245.00
2022-12-01T05:38:26.455Z,212.30
2022-12-01T05:40:55.486Z,238.82
2022-12-01T05:43:28.758Z,209.65
2022-12-01T05:45:57.324Z,222.15
2022-12-01T05:48:25.282Z,203.32
2022-12-01T05:51:25.002Z,196.57
2022-12-01T06:00:15.112Z,210.27
2022-12-01T06:02:42.319Z,221.00
2022-12-01T06:05:09.348Z,201.82
2022-12-01T06:07:35.894Z,224.68
2022-12-01T06:10:03.484Z,240.02
2022-12-01T06:12:29.990Z,207.05
2022-12-01T06:14:56.546Z,233.25
2022-12-01T06:17:23.016Z,225.77
2022-12-01T06:19:49.777Z,243.15
2022-12-01T06:22:16.416Z,208.52
2022-12-01T06:24:42.925Z,217.32
2022-12-01T06:27:09.325Z,203.02
2022-12-01T06:29:40.564Z,243.55
2022-12-01T06:32:08.480Z,230.93
2022-12-01T06:34:34.938Z,256.67
2022-12-01T06:37:01.478Z,217.23
2022-12-01T06:39:27.995Z,220.82
2022-12-01T06:41:54.452Z,220.75
2022-12-01T06:44:20.956Z,230.77
2022-12-01T06:46:47.565Z,202.48
2022-12-01T06:49:14.105Z,233.88
2022-12-01T06:51:40.635Z,218.65
2022-12-01T06:54:07.749Z,230.90
2022-12-01T06:56:34.210Z,239.63
2022-12-01T06:59:01.095Z,234.85
2022-12-01T07:01:28.422Z,200.02
2022-12-01T07:03:55.128Z,213.02
2022-12-01T07:06:21.860Z,189.80
2022-12-01T07:08:48.383Z,226.20
2022-12-01T07:11:16.330Z,227.75
2022-12-01T07:13:47.085Z,205.45
2022-12-01T07:16:13.667Z,255.32
2022-12-01T07:18:40.633Z,232.60
2022-12-01T07:21:12.968Z,231.20
2022-12-01T07:23:40.077Z,219.68
2022-12-01T07:26:10.041Z,221.23
2022-12-01T07:28:36.626Z,218.75
2022-12-01T07:31:10.638Z,205.48
2022-12-01T07:33:37.380Z,217.52
2022-12-01T07:36:05.006Z,226.50
2022-12-01T07:41:06.335Z,210.02
2022-12-01T07:43:33.648Z,213.63
2022-12-01T07:46:23.840Z,204.65
2022-12-01T07:48:51.645Z,213.05
2022-12-01T07:51:18.280Z,209.55
2022-12-01T07:53:46.300Z,221.00
2022-12-01T07:56:13.544Z,194.00
2022-12-01T07:58:40.792Z,215.93
2022-12-01T08:01:12.863Z,208.15
2022-12-01T08:03:40.282Z,206.30
2022-12-01T08:06:07.579Z,192.65
2022-12-01T08:08:35.774Z,217.75
2022-12-01T08:11:07.632Z,196.68
2022-12-01T08:13:34.520Z,224.77
2022-12-01T08:16:05.270Z,206.30
2022-12-01T08:18:34.911Z,189.90
2022-12-01T08:21:01.737Z,186.35
2022-12-01T08:23:28.240Z,200.98
2022-12-01T08:25:54.818Z,183.73
2022-12-01T08:28:21.527Z,195.40
2022-12-01T08:30:48.161Z,176.80
2022-12-01T08:33:14.810Z,184.68
2022-12-01T08:35:41.382Z,172.50
2022-12-01T08:38:08.850Z,169.80
2022-12-01T08:40:35.339Z,154.35
2022-12-01T08:43:01.868Z,173.38
2022-12-01T08:45:28.476Z,219.48
2022-12-01T08:47:58.924Z,161.60
2022-12-01T08:50:27.446Z,176.32
2022-12-01T08:52:54.030Z,177.20
2022-12-01T08:55:21.934Z,167.02
2022-12-01T08:57:48.524Z,173.18
2022-12-01T09:00:16.301Z,162.48
2022-12-01T09:02:42.906Z,169.30
2022-12-01T09:05:09.729Z,160.70
2022-12-01T09:07:36.229Z,168.35
2022-12-01T09:10:02.681Z,160.93
2022-12-01T09:12:29.649Z,164.02
2022-12-01T09:14:56.043Z,167.60
2022-12-01T09:17:23.621Z,161.48
2022-12-01T09:19:50.502Z,150.77
2022-12-01T09:22:17.161Z,151.23
2022-12-01T09:24:43.646Z,142.93
2022-12-01T09:27:10.189Z,143.25
2022-12-01T09:29:36.763Z,138.00
2022-12-01T09:32:03.473Z,136.05
2022-12-01T09:34:30.148Z,138.50
2022-12-01T09:36:58.279Z,147.73
2022-12-01T09:39:25.145Z,150.82
2022-12-01T09:41:57.657Z,150.10
2022-12-01T09:44:36.521Z,138.65
2022-12-01T09:47:23.955Z,120.45
2022-12-01T09:50:12.389Z,132.60
2022-12-01T09:52:47.188Z,140.30
2022-12-01T09:55:16.360Z,143.98
2022-12-01T09:57:44.303Z,154.88
2022-12-01T10:00:18.371Z,140.10
2022-12-01T10:03:12.524Z,141.50
2022-12-01T10:06:10.279Z,122.13
2022-12-01T10:08:37.020Z,120.10
2022-12-01T10:11:36.784Z,131.95
2022-12-01T10:14:06.218Z,143.95
2022-12-01T10:16:43.742Z,129.30
2022-12-01T10:19:17.779Z,146.10
2022-12-01T10:22:05.928Z,129.55
2022-12-01T10:24:59.976Z,137.85
2022-12-01T10:27:35.574Z,146.55
2022-12-01T10:30:08.849Z,140.98
2022-12-01T10:33:16.855Z,131.10
2022-12-01T10:35:43.332Z,135.02
2022-12-01T10:38:22.204Z,130.23
2022-12-01T10:40:50.843Z,120.90
2022-12-01T10:43:17.330Z,134.48
2022-12-01T10:45:45.614Z,116.97
2022-12-01T10:48:23.057Z,150.88
2022-12-01T10:50:55.012Z,122.45
2022-12-01T10:53:25.264Z,116.22
2022-12-01T10:56:00.572Z,114.88
2022-12-01T10:58:27.127Z,108.13
2022-12-01T11:01:01.226Z,109.03
2022-12-01T11:03:31.902Z,107.32
2022-12-01T11:06:00.947Z,104.65
2022-12-01T11:08:33.583Z,96.55
2022-12-01T11:11:00.121Z,103.53
2022-12-01T11:13:29.089Z,99.60
2022-12-01T11:16:01.233Z,108.45
2022-12-01T11:18:27.839Z,107.03
2022-12-01T11:21:25.719Z,107.55
2022-12-01T11:23:54.600Z,104.90
2022-12-01T11:26:25.407Z,110.82
2022-12-01T11:28:56.173Z,105.63
2022-12-01T11:31:35.719Z,102.50
2022-12-01T11:34:02.575Z,109.35
2022-12-01T11:36:37.981Z,115.95
2022-12-01T11:39:04.824Z,103.82
2022-12-01T11:41:39.404Z,103.50
2022-12-01T11:44:43.304Z,97.60
2022-12-01T11:47:25.002Z,97.25
2022-12-01T11:50:00.858Z,94.13
2022-12-01T11:52:36.653Z,93.07
2022-12-01T11:55:24.476Z,92.00
2022-12-01T11:57:54.145Z,99.88
2022-12-01T12:00:27.956Z,99.03
2022-12-01T12:03:08.546Z,97.82
2022-12-01T12:06:11.699Z,100.90
2022-12-01T12:09:10.789Z,100.47
2022-12-01T12:11:53.179Z,87.72
2022-12-01T12:14:34.156Z,103.70
2022-12-01T12:17:38.220Z,92.25
2022-12-01T12:20:08.994Z,95.93
2022-12-01T12:23:13.261Z,102.75
2022-12-01T12:26:15.303Z,90.00
2022-12-01T12:29:01.568Z,97.93
2022-12-01T12:31:45.984Z,97.45
2022-12-01T12:34:27.630Z,98.43
2022-12-01T12:37:26.315Z,101.35
2022-12-01T12:40:31.826Z,101.15
2022-12-01T12:43:22.513Z,86.82
2022-12-01T12:46:05.720Z,85.72
2022-12-01T12:49:21.386Z,98.22
2022-12-01T12:51:54.346Z,90.10
2022-12-01T12:54:20.903Z,101.20
2022-12-01T12:56:51.799Z,91.80
2022-12-01T12:59:36.321Z,94.97
2022-12-01T13:02:18.724Z,99.80
2022-12-01T13:04:58.302Z,105.03
2022-12-01T13:07:49.761Z,105.05
2022-12-01T13:10:37.175Z,104.50
2022-12-01T13:13:12.183Z,103.07
2022-12-01T13:15:40.223Z,103.03
2022-12-01T13:18:19.865Z,99.45
2022-12-01T13:20:47.467Z,97.35
2022-12-01T13:25:44.353Z,115.20
2022-12-01T13:28:20.407Z,101.32
2022-12-01T13:31:02.920Z,101.55
2022-12-01T13:33:31.241Z,111.88
2022-12-01T13:36:29.830Z,98.15
2022-12-01T13:39:00.530Z,107.60
2022-12-01T13:41:33.980Z,97.95
2022-12-01T13:44:04.500Z,97.60
2022-12-01T13:46:37.016Z,101.72
2022-12-01T13:49:04.591Z,103.57
2022-12-01T13:52:13.599Z,98.68
2022-12-01T13:55:02.052Z,90.53
2022-12-01T13:57:31.763Z,93.03
2022-12-01T13:59:58.273Z,86.80
2022-12-01T14:02:27.263Z,84.82
2022-12-01T14:04:54.433Z,82.15
2022-12-01T14:07:32.053Z,86.50
2022-12-01T14:10:37.759Z,95.18
2022-12-01T14:13:06.495Z,82.70
2022-12-01T14:15:42.856Z,82.85
2022-12-01T14:18:18.687Z,84.67
2022-12-01T14:20:47.637Z,83.63
2022-12-01T14:23:24.756Z,83.13
2022-12-01T14:26:12.709Z,76.35
2022-12-01T14:29:01.094Z,79.93
2022-12-01T14:31:33.823Z,84.32
2022-12-01T14:34:19.294Z,92.78
2022-12-01T14:37:07.652Z,89.22
2022-12-01T14:39:36.952Z,89.63
2022-12-01T14:42:48.629Z,86.82
2022-12-01T14:45:20.499Z,83.60
2022-12-01T14:47:55.867Z,93.28
2022-12-01T14:50:33.318Z,89.63
2022-12-01T14:55:56.578Z,82.95
2022-12-01T14:58:31.594Z,84.25
2022-12-01T15:01:08.768Z,92.80
2022-12-01T15:03:39.519Z,90.72
2022-12-01T15:06:07.405Z,84.88
2022-12-01T15:08:53.308Z,85.50
2022-12-01T15:11:25.620Z,83.57
2022-12-01T15:13:54.731Z,86.35
2022-12-01T15:16:28.288Z,79.53
2022-12-01T15:18:55.022Z,85.63
2022-12-01T15:21:25.518Z,76.33
2022-12-01T15:24:19.712Z,81.07
2022-12-01T15:26:48.746Z,84.28
2022-12-01T15:29:31.915Z,83.00
2022-12-01T15:32:06.013Z,83.88
2022-12-01T15:34:39.761Z,85.20
2022-12-01T15:37:11.764Z,81.63
2022-12-01T15:40:11.899Z,87.82
2022-12-01T15:42:43.767Z,86.68
2022-12-01T15:45:22.047Z,84.30
2022-12-01T15:47:50.766Z,77.80
2022-12-01T15:50:37.668Z,94.13
2022-12-01T15:53:21.809Z,81.63
2022-12-01T15:55:54.113Z,79.90
2022-12-01T15:58:27.210Z,82.63
2022-12-01T16:01:06.325Z,81.35
2022-12-01T16:03:45.541Z,83.78
2022-12-01T16:06:12.800Z,77.28
2022-12-01T16:08:39.901Z,83.78
2022-12-01T16:11:13.947Z,84.35
2022-12-01T16:13:55.417Z,78.53
2022-12-01T16:16:38.346Z,78.38
2022-12-01T16:19:07.740Z,76.28
2022-12-01T16:21:52.978Z,77.85
2022-12-01T16:24:19.465Z,78.50
2022-12-01T16:26:48.838Z,81.82
2022-12-01T16:29:24.141Z,84.05
2022-12-01T16:32:13.047Z,75.85
2022-12-01T16:34:46.282Z,77.03
2022-12-01T16:37:14.326Z,77.47
2022-12-01T16:39:40.967Z,79.10
2022-12-01T16:42:11.956Z,84.87
2022-12-01T16:44:38.521Z,72.30
2022-12-01T16:47:12.941Z,81.85
2022-12-01T16:49:39.516Z,94.25
2022-12-01T16:52:22.105Z,104.80
2022-12-01T16:54:52.583Z,82.65
2022-12-01T16:57:19.248Z,78.13
2022-12-01T16:59:45.818Z,90.30
2022-12-01T17:02:12.397Z,77.85
2022-12-01T17:04:39.032Z,74.63
2022-12-01T17:07:05.566Z,88.47
2022-12-01T17:09:32.299Z,75.22
2022-12-01T17:11:59.288Z,75.77
2022-12-01T17:14:25.881Z,69.25
2022-12-01T17:16:52.362Z,69.55
2022-12-01T17:19:19.219Z,66.75
2022-12-01T17:21:45.728Z,67.88
2022-12-01T17:24:16.156Z,68.38
2022-12-01T17:26:45.288Z,66.32
2022-12-01T17:29:11.908Z,62.38
2022-12-01T17:31:38.469Z,66.72
2022-12-01T17:34:05.140Z,64.75
2022-12-01T17:36:31.640Z,80.25
2022-12-01T17:38:58.814Z,66.97
2022-12-01T17:41:32.215Z,66.90
2022-12-01T17:43:58.888Z,66.05
2022-12-01T17:46:25.758Z,66.32
2022-12-01T17:48:52.364Z,62.92
2022-12-01T17:51:19.092Z,66.03
2022-12-01T17:53:45.702Z,64.00
2022-12-01T17:56:14.416Z,62.70
2022-12-01T17:58:41.272Z,62.95
2022-12-01T18:01:17.524Z,70.00
2022-12-01T18:03:44.593Z,64.65
2022-12-01T18:06:11.894Z,64.88
2022-12-01T18:08:39.712Z,66.10
2022-12-01T18:11:08.024Z,62.25
2022-12-01T18:13:39.311Z,60.35
2022-12-01T18:16:10.391Z,66.25
2022-12-01T18:18:40.050Z,66.03
2022-12-01T18:21:08.261Z,63.50
2022-12-01T18:23:35.322Z,65.03
2022-12-01T18:26:15.417Z,66.22
2022-12-01T18:28:43.185Z,60.67
2022-12-01T18:31:12.943Z,68.82
2022-12-01T18:33:42.321Z,59.00
2022-12-01T18:36:18.592Z,61.97
2022-12-01T18:38:47.222Z,65.25
2022-12-01T18:41:14.491Z,69.40
2022-12-01T18:43:41.371Z,68.38
2022-12-01T18:46:08.183Z,62.30
2022-12-01T18:48:35.240Z,65.22
2022-12-01T18:51:03.833Z,64.88
2022-12-01T18:53:30.593Z,58.85
2022-12-01T18:55:57.105Z,61.10
2022-12-01T18:58:23.448Z,61.10
2022-12-01T19:00:51.374Z,63.33
2022-12-01T19:03:17.960Z,67.90
2022-12-01T19:05:49.922Z,69.18
2022-12-01T19:08:16.424Z,65.15
2022-12-01T19:10:42.819Z,63.92
2022-12-01T19:13:09.325Z,72.15
2022-12-01T19:15:38.704Z,67.07
2022-12-01T19:18:05.181Z,60.65
2022-12-01T19:20:31.611Z,67.60
2022-12-01T19:22:58.133Z,65.85
2022-12-01T19:25:24.510Z,63.35
2022-12-01T19:27:53.082Z,64.63
2022-12-01T19:30:19.612Z,64.18
2022-12-01T19:32:46.074Z,64.25
2022-12-01T19:35:12.547Z,67.30
2022-12-01T19:37:39.127Z,69.05
2022-12-01T19:40:06.297Z,62.90
2022-12-01T19:42:32.833Z,66.18
2022-12-01T19:44:59.665Z,73.60
2022-12-01T19:47:26.207Z,72.30
2022-12-01T19:49:52.695Z,72.22
2022-12-01T19:52:20.467Z,79.30
2022-12-01T19:54:46.960Z,67.47
2022-12-01T19:57:13.508Z,87.60
2022-12-01T19:59:40.137Z,74.78
2022-12-01T20:02:06.866Z,68.68
2022-12-01T20:04:33.560Z,66.97
2022-12-01T20:07:00.196Z,72.77
2022-12-01T20:09:27.379Z,73.20
2022-12-01T20:11:53.938Z,71.22
2022-12-01T20:14:20.722Z,80.35
2022-12-01T20:16:47.391Z,73.18
2022-12-01T20:19:14.036Z,76.43
2022-12-01T20:21:43.236Z,76.00
2022-12-01T20:24:20.032Z,82.47
2022-12-01T20:26:50.881Z,72.55
2022-12-01T20:29:21.857Z,79.80
2022-12-01T20:31:50.403Z,78.80
2022-12-01T20:34:25.507Z,76.97
2022-12-01T20:36:53.017Z,84.57
2022-12-01T20:39:20.183Z,80.88
2022-12-01T20:41:46.704Z,73.13
2022-12-01T20:44:14.257Z,72.00
2022-12-01T20:46:45.746Z,75.30
2022-12-01T20:49:14.426Z,75.60
2022-12-01T20:51:40.972Z,81.15
2022-12-01T20:54:28.320Z,80.03
2022-12-01T20:56:56.107Z,83.22
2022-12-01T20:59:22.699Z,77.07
2022-12-01T21:01:49.224Z,75.80
2022-12-01T21:04:15.919Z,78.45
2022-12-01T21:06:42.582Z,86.53
2022-12-01T21:09:09.207Z,82.60
2022-12-01T21:12:03.800Z,77.67
2022-12-01T21:14:37.567Z,75.55
2022-12-01T21:17:16.894Z,79.05
2022-12-01T21:19:53.686Z,75.28
2022-12-01T21:22:20.237Z,76.97
2022-12-01T21:24:50.457Z,82.00
2022-12-01T21:27:18.157Z,77.88
2022-12-01T21:29:47.751Z,79.70
2022-12-01T21:32:17.691Z,79.18
2022-12-01T21:34:46.870Z,79.72
2022-12-01T21:37:24.835Z,77.32
2022-12-01T21:39:53.197Z,77.72
2022-12-01T21:42:22.370Z,76.68
2022-12-01T21:44:51.204Z,75.97
2022-12-01T21:47:23.610Z,80.65
2022-12-01T21:49:55.960Z,77.38
2022-12-01T21:52:33.241Z,71.25
2022-12-01T21:55:22.747Z,74.32
2022-12-01T21:57:51.391Z,72.43
2022-12-01T22:00:23.621Z,82.95
2022-12-01T22:02:52.246Z,82.72
2022-12-01T22:05:37.672Z,77.72
2022-12-01T22:08:13.305Z,75.00
2022-12-01T22:10:55.679Z,69.10
2022-12-01T22:13:48.251Z,72.95
2022-12-01T22:16:40.857Z,74.60
2022-12-01T22:19:16.612Z,69.60
2022-12-01T22:21:48.088Z,72.25
2022-12-01T22:24:21.867Z,73.13
2022-12-01T22:26:51.993Z,71.82
2022-12-01T22:29:39.455Z,72.63
2022-12-01T22:32:11.930Z,71.85
2022-12-01T22:34:40.169Z,76.88
2022-12-01T22:37:35.688Z,76.03
2022-12-01T22:40:02.244Z,68.28
2022-12-01T22:42:33.732Z,66.15
2022-12-01T22:45:22.791Z,70.82
2022-12-01T22:47:49.352Z,78.57
2022-12-01T22:50:26.965Z,68.22
2022-12-01T22:52:58.105Z,66.00
2022-12-01T22:55:24.600Z,72.25
2022-12-01T22:57:51.164Z,71.25
2022-12-01T23:00:21.578Z,74.85
2022-12-01T23:02:49.676Z,72.95
2022-12-01T23:05:28.382Z,75.82
2022-12-01T23:07:55.758Z,74.30
2022-12-01T23:10:25.298Z,78.15
2022-12-01T23:12:54.735Z,70.32
2022-12-01T23:15:35.460Z,69.80
2022-12-01T23:18:13.791Z,67.38
2022-12-01T23:20:41.355Z,68.43
2022-12-01T23:25:42.379Z,65.15
2022-12-01T23:28:10.586Z,66.60
2022-12-01T23:30:40.196Z,68.10
2022-12-01T23:33:14.531Z,69.00
2022-12-01T23:35:48.019Z,69.40
2022-12-01T23:38:18.143Z,69.68
2022-12-01T23:40:45.748Z,66.63
2022-12-01T23:46:05.233Z,66.93
2022-12-01T23:48:39.322Z,70.03
2022-12-01T23:51:15.807Z,64.25
2022-12-01T23:53:43.089Z,63.83
2022-12-01T23:56:16.989Z,64.25
2022-12-01T23:58:44.498Z,63.55
